Terminal Aerodrome Forecast
Issued by NWS

Home | Current Version | Previous Version | Text Only | Print | Product List | Glossary On
Versions: 1 2 3 4 5 6 7 8 9 10 11 12 13 14 15 16 17 18
078
FTUS41 KCAR 160415 AAA
TAFPQI
TAF AMD
KPQI 160415Z 1604/1624 25005KT P6SM BKN250
     FM160500 00000KT P6SM -SN SCT030 OVC050
     FM160900 VRB03KT 6SM -SN BR SCT030 BKN040
     FM161300 32006KT P6SM SCT110=

USA.gov is the U.S. government's official web portal to all federal, state and local government web resources and services.